Time;durP1;ratioP1;P1;durP2;ratioP2;P2;SDS_P1;SDS_P2;PMS_P1;PMS_P2;Temp;Humidity;BMP_temperature;BMP_pressure;BME280_temperature;BME280_humidity;BME280_pressure;Samples;Min_cycle;Max_cycle;Signal;HPM_P1;HPM_P2
2021/01/22 00:01:43;;;;;;;41.10;21.80;;;6.20;99.60;;;;;;6226974;28;21009;-62
2021/01/22 00:04:45;;;;;;;37.00;19.10;;;6.20;99.60;;;;;;6226999;28;20467;-60
2021/01/22 00:07:48;;;;;;;17.50;12.83;;;6.20;99.90;;;;;;6226904;28;20480;-63
2021/01/22 00:10:50;;;;;;;12.30;10.17;;;6.20;99.80;;;;;;6224704;28;20473;-60
2021/01/22 00:13:52;;;;;;;13.57;9.90;;;6.20;99.80;;;;;;6215925;28;20995;-59
2021/01/22 00:16:55;;;;;;;10.00;8.50;;;6.20;99.80;;;;;;6214680;28;20819;-59
2021/01/22 00:19:58;;;;;;;12.30;8.43;;;6.00;99.90;;;;;;6203057;28;20477;-58
2021/01/22 00:23:03;;;;;;;12.50;8.07;;;6.10;99.90;;;;;;6211610;28;20473;-58
2021/01/22 00:26:06;;;;;;;8.67;7.57;;;6.10;99.90;;;;;;6206210;28;20563;-59
2021/01/22 00:29:08;;;;;;;8.77;7.67;;;6.00;99.90;;;;;;6214624;28;20978;-59
2021/01/22 00:32:11;;;;;;;8.37;6.90;;;6.10;99.90;;;;;;6212991;28;20488;-59
2021/01/22 00:35:13;;;;;;;11.93;10.30;;;6.00;99.90;;;;;;6213022;28;20476;-59
2021/01/22 00:38:16;;;;;;;11.67;10.57;;;6.00;99.90;;;;;;6192935;28;20507;-55
2021/01/22 00:41:18;;;;;;;13.70;9.77;;;6.00;99.90;;;;;;6181949;28;20470;-55
2021/01/22 00:44:22;;;;;;;11.83;9.60;;;6.00;99.90;;;;;;6178097;28;20474;-54
2021/01/22 00:47:25;;;;;;;10.30;8.50;;;5.90;99.90;;;;;;6177474;28;20488;-56
2021/01/22 00:50:28;;;;;;;9.43;8.20;;;6.00;99.90;;;;;;6177255;28;20485;-56
2021/01/22 00:53:30;;;;;;;10.93;8.40;;;5.90;99.90;;;;;;6177626;28;20488;-56
2021/01/22 00:56:32;;;;;;;11.97;8.60;;;5.90;99.90;;;;;;6177424;28;20474;-54
2021/01/22 00:59:34;;;;;;;10.23;7.73;;;5.80;99.90;;;;;;6177998;28;20488;-54
2021/01/22 01:02:40;;;;;;;9.70;8.60;;;5.80;99.90;;;;;;6191649;28;20495;-59
2021/01/22 01:05:43;;;;;;;11.37;6.93;;;5.80;99.90;;;;;;6180631;28;20474;-61
2021/01/22 01:08:45;;;;;;;10.20;8.70;;;5.80;99.90;;;;;;6176878;28;20495;-58
2021/01/22 01:11:47;;;;;;;8.30;7.50;;;5.80;99.90;;;;;;6179159;28;20496;-61
2021/01/22 01:14:49;;;;;;;7.00;6.30;;;5.80;99.90;;;;;;6183259;28;20477;-61
2021/01/22 01:17:52;;;;;;;8.80;7.30;;;5.70;99.90;;;;;;6186243;28;20475;-61
2021/01/22 01:20:55;;;;;;;9.13;7.00;;;5.70;99.90;;;;;;6187091;28;20503;-61
2021/01/22 01:23:57;;;;;;;11.33;7.57;;;5.80;99.90;;;;;;6177866;28;20476;-57
2021/01/22 01:26:59;;;;;;;8.37;7.00;;;5.80;99.90;;;;;;6187369;28;20492;-58
2021/01/22 01:30:05;;;;;;;6.77;5.87;;;5.80;99.90;;;;;;6179189;28;20527;-57
2021/01/22 01:33:10;;;;;;;8.97;7.17;;;5.80;99.90;;;;;;6176697;28;20466;-57
2021/01/22 01:36:13;;;;;;;6.43;5.73;;;5.90;99.90;;;;;;6176617;28;20485;-54
2021/01/22 01:39:15;;;;;;;6.80;6.10;;;5.90;99.90;;;;;;6176605;28;20976;-56
2021/01/22 01:42:17;;;;;;;6.77;6.10;;;5.90;99.90;;;;;;6176607;28;20474;-57
2021/01/22 01:45:19;;;;;;;7.10;6.50;;;5.90;99.90;;;;;;6176860;28;20481;-56
2021/01/22 01:48:23;;;;;;;7.13;6.53;;;5.90;99.90;;;;;;6176671;28;20481;-57
2021/01/22 01:51:25;;;;;;;5.90;5.33;;;5.80;99.90;;;;;;6176669;28;20488;-53
2021/01/22 01:54:28;;;;;;;6.83;4.50;;;5.80;99.90;;;;;;6176879;28;20529;-54
2021/01/22 01:57:30;;;;;;;6.37;5.77;;;5.70;99.90;;;;;;6176464;28;20564;-57
2021/01/22 02:00:32;;;;;;;6.10;4.20;;;5.70;99.90;;;;;;6176427;28;20485;-57
2021/01/22 02:03:35;;;;;;;7.93;4.90;;;5.60;99.90;;;;;;6176503;28;20477;-58
2021/01/22 02:06:38;;;;;;;6.07;5.47;;;5.70;99.90;;;;;;6176673;28;20536;-58
2021/01/22 02:09:41;;;;;;;5.83;5.00;;;5.60;99.90;;;;;;6176257;28;20997;-58
2021/01/22 02:12:43;;;;;;;7.00;4.90;;;5.60;99.90;;;;;;6176334;28;20650;-58
2021/01/22 02:15:47;;;;;;;4.70;4.30;;;5.60;99.90;;;;;;6177388;28;20505;-61
2021/01/22 02:18:53;;;;;;;7.60;5.30;;;5.60;99.90;;;;;;6181013;28;20454;-55
2021/01/22 02:21:56;;;;;;;5.60;5.00;;;5.60;99.90;;;;;;6180925;28;20468;-57
2021/01/22 02:24:59;;;;;;;5.83;4.30;;;5.60;99.90;;;;;;6181092;28;20456;-53
2021/01/22 02:28:05;;;;;;;6.40;5.30;;;5.60;99.90;;;;;;6180620;28;20473;-58
2021/01/22 02:31:08;;;;;;;5.90;4.37;;;5.70;99.90;;;;;;6180769;28;20824;-57
2021/01/22 02:34:12;;;;;;;5.70;4.10;;;5.60;99.90;;;;;;6181125;28;20480;-60
2021/01/22 02:37:20;;;;;;;6.50;4.37;;;5.60;99.90;;;;;;6180431;28;20773;-54
2021/01/22 02:40:24;;;;;;;5.23;4.33;;;5.60;99.90;;;;;;6180818;28;20481;-54
2021/01/22 02:43:28;;;;;;;4.43;3.80;;;5.70;99.90;;;;;;6180815;28;20484;-59
2021/01/22 02:46:32;;;;;;;5.03;4.63;;;5.60;99.90;;;;;;6180382;28;20921;-59
2021/01/22 02:49:34;;;;;;;4.33;3.40;;;5.50;99.90;;;;;;6180023;28;20822;-60
2021/01/22 02:52:36;;;;;;;4.20;3.63;;;5.50;99.90;;;;;;6180126;28;20477;-59
2021/01/22 02:55:39;;;;;;;10.60;4.67;;;5.50;99.90;;;;;;6180113;28;20792;-60
2021/01/22 02:58:50;;;;;;;5.23;3.90;;;5.60;99.90;;;;;;6180137;28;20474;-53
2021/01/22 03:02:02;;;;;;;6.40;4.90;;;5.60;99.90;;;;;;6180388;28;20474;-54
2021/01/22 03:05:06;;;;;;;6.00;4.13;;;5.60;99.90;;;;;;6180464;28;20528;-54
2021/01/22 03:08:13;;;;;;;4.10;3.80;;;5.60;99.90;;;;;;6179835;28;20802;-56
2021/01/22 03:11:16;;;;;;;4.30;4.00;;;5.60;99.90;;;;;;6179714;28;20484;-60
2021/01/22 03:14:20;;;;;;;3.27;2.97;;;5.60;99.90;;;;;;6179619;28;20474;-57
2021/01/22 03:17:22;;;;;;;4.03;3.73;;;5.70;99.90;;;;;;6179993;28;20470;-56
2021/01/22 03:20:25;;;;;;;4.33;3.77;;;5.70;99.90;;;;;;6180062;28;20581;-57
2021/01/22 03:23:27;;;;;;;4.60;4.20;;;5.70;99.90;;;;;;6179472;28;20469;-57
2021/01/22 03:26:29;;;;;;;6.00;3.73;;;5.70;99.90;;;;;;6179175;28;20838;-60
2021/01/22 03:29:32;;;;;;;4.63;3.57;;;5.60;99.90;;;;;;6170915;28;20500;-57
2021/01/22 03:32:34;;;;;;;4.83;3.93;;;5.70;99.90;;;;;;6179287;28;20474;-57
2021/01/22 03:35:37;;;;;;;4.70;4.30;;;5.60;99.90;;;;;;6179137;28;20974;-57
2021/01/22 03:38:39;;;;;;;9.80;4.33;;;5.50;99.90;;;;;;6178909;28;20478;-56
2021/01/22 03:41:41;;;;;;;6.67;4.73;;;5.50;99.90;;;;;;6179234;28;20478;-57
2021/01/22 03:44:44;;;;;;;7.43;6.70;;;5.50;99.90;;;;;;6178734;28;20929;-57
2021/01/22 03:47:47;;;;;;;6.70;6.10;;;5.50;99.90;;;;;;6179008;28;20485;-57
2021/01/22 03:50:49;;;;;;;11.33;6.33;;;5.40;99.90;;;;;;6179153;28;20481;-57
2021/01/22 03:53:51;;;;;;;7.20;6.50;;;5.40;99.90;;;;;;6178900;28;20489;-57
2021/01/22 03:56:54;;;;;;;7.50;6.70;;;5.50;99.90;;;;;;6179456;28;20481;-54
2021/01/22 03:59:57;;;;;;;7.70;7.00;;;5.50;99.90;;;;;;6178613;28;20525;-57
2021/01/22 04:02:59;;;;;;;5.50;4.90;;;5.60;99.90;;;;;;6178618;28;20485;-57
2021/01/22 04:06:03;;;;;;;6.53;4.93;;;5.60;99.90;;;;;;6179136;28;20504;-57
2021/01/22 04:09:06;;;;;;;5.80;4.13;;;5.60;99.90;;;;;;6178302;28;20486;-56
2021/01/22 04:12:08;;;;;;;4.73;4.33;;;5.60;99.90;;;;;;6178491;28;20470;-57
2021/01/22 04:15:14;;;;;;;5.57;4.57;;;5.60;99.90;;;;;;6178530;28;20636;-57
2021/01/22 04:18:17;;;;;;;5.40;3.97;;;5.60;99.90;;;;;;6178303;28;20500;-57
2021/01/22 04:21:20;;;;;;;5.20;4.40;;;5.60;99.90;;;;;;6178740;28;20798;-57
2021/01/22 04:24:22;;;;;;;4.87;4.40;;;5.60;99.90;;;;;;6178211;28;20478;-59
2021/01/22 04:27:24;;;;;;;8.47;4.70;;;5.60;99.90;;;;;;6177987;28;20482;-59
2021/01/22 04:30:27;;;;;;;5.87;4.53;;;5.70;99.90;;;;;;6177841;28;20486;-60
2021/01/22 04:33:30;;;;;;;5.53;4.20;;;5.70;99.90;;;;;;6169706;28;20930;-60
2021/01/22 04:36:32;;;;;;;4.80;3.87;;;5.60;99.90;;;;;;6177712;28;20530;-61
2021/01/22 04:39:36;;;;;;;4.70;3.77;;;5.60;99.90;;;;;;6176962;28;20484;-61
2021/01/22 04:42:43;;;;;;;5.27;4.07;;;5.70;99.90;;;;;;6177498;28;20477;-61
2021/01/22 04:45:46;;;;;;;4.27;3.87;;;5.70;99.90;;;;;;6177355;28;20992;-61
2021/01/22 04:48:49;;;;;;;5.43;4.37;;;5.70;99.90;;;;;;6177258;28;20529;-60
2021/01/22 04:51:52;;;;;;;5.47;3.83;;;5.80;99.90;;;;;;6177538;28;20946;-60
2021/01/22 04:54:57;;;;;;;4.20;3.70;;;5.80;99.90;;;;;;6177722;28;20450;-60
2021/01/22 04:58:03;;;;;;;5.27;4.87;;;5.90;99.90;;;;;;6177576;28;20470;-61
2021/01/22 05:01:06;;;;;;;4.23;3.83;;;5.90;99.90;;;;;;6177350;28;20851;-61
2021/01/22 05:04:10;;;;;;;8.90;3.97;;;5.90;99.90;;;;;;6177698;28;20472;-60
2021/01/22 05:07:13;;;;;;;5.03;4.53;;;5.90;99.90;;;;;;6177704;28;20469;-61
2021/01/22 05:10:15;;;;;;;4.90;4.50;;;6.00;99.90;;;;;;6177284;28;20951;-60
2021/01/22 05:13:18;;;;;;;4.57;4.17;;;6.00;99.90;;;;;;6177256;28;20796;-60
2021/01/22 05:16:23;;;;;;;4.83;4.30;;;6.00;99.90;;;;;;6177497;28;20465;-60
2021/01/22 05:19:26;;;;;;;6.33;4.13;;;6.00;99.90;;;;;;6177053;28;20972;-61
2021/01/22 05:22:28;;;;;;;5.77;4.40;;;6.10;99.90;;;;;;6177161;28;20958;-60
2021/01/22 05:25:31;;;;;;;4.80;4.37;;;6.10;99.90;;;;;;6177101;28;20561;-59
2021/01/22 05:28:35;;;;;;;4.30;3.90;;;6.00;99.90;;;;;;6177059;28;20497;-61
2021/01/22 05:31:38;;;;;;;5.03;4.17;;;6.10;99.90;;;;;;6177231;28;20481;-60
2021/01/22 05:34:45;;;;;;;4.87;4.47;;;6.10;99.90;;;;;;6172979;28;20485;-58
2021/01/22 05:37:51;;;;;;;4.50;4.20;;;6.10;99.90;;;;;;6176629;28;20490;-58
2021/01/22 05:40:58;;;;;;;4.47;4.00;;;6.20;99.90;;;;;;6176789;28;20484;-58
2021/01/22 05:44:00;;;;;;;7.73;4.60;;;6.20;99.90;;;;;;6176775;28;20474;-60
2021/01/22 05:47:05;;;;;;;5.53;5.07;;;6.30;99.90;;;;;;6176554;28;21008;-58
2021/01/22 05:50:08;;;;;;;7.00;5.40;;;6.30;99.90;;;;;;6176332;28;20825;-57
2021/01/22 05:53:14;;;;;;;4.77;4.40;;;6.40;99.90;;;;;;6181998;28;20478;-57
2021/01/22 05:56:19;;;;;;;5.70;5.10;;;6.40;99.90;;;;;;6181728;28;20969;-54
2021/01/22 05:59:21;;;;;;;4.70;4.20;;;6.40;99.90;;;;;;6181646;28;20484;-58
2021/01/22 06:02:28;;;;;;;5.43;4.93;;;6.50;99.90;;;;;;6181802;28;20480;-57
2021/01/22 06:05:31;;;;;;;6.10;5.00;;;6.50;99.90;;;;;;6181606;28;20481;-57
2021/01/22 06:08:33;;;;;;;5.00;4.50;;;6.50;99.90;;;;;;6181054;28;20492;-57
2021/01/22 06:11:36;;;;;;;7.00;5.13;;;6.50;99.90;;;;;;6181227;28;20488;-58
2021/01/22 06:14:39;;;;;;;5.83;5.07;;;6.50;99.90;;;;;;6181223;28;20482;-57
2021/01/22 06:17:47;;;;;;;5.70;4.47;;;6.50;99.90;;;;;;6181079;28;20477;-60
2021/01/22 06:20:53;;;;;;;5.53;4.97;;;6.50;99.90;;;;;;6181672;28;20488;-60
2021/01/22 06:23:56;;;;;;;6.30;5.13;;;6.60;99.90;;;;;;6181064;28;20484;-58
2021/01/22 06:27:01;;;;;;;5.60;5.10;;;6.60;99.90;;;;;;6181150;28;20474;-57
2021/01/22 06:30:04;;;;;;;13.37;9.70;;;6.60;99.90;;;;;;6180618;28;20965;-58
2021/01/22 06:33:08;;;;;;;19.10;14.77;;;6.70;99.90;;;;;;6180548;28;20473;-57
2021/01/22 06:36:13;;;;;;;13.03;10.50;;;6.70;99.90;;;;;;6180675;28;20470;-58
2021/01/22 06:39:16;;;;;;;12.33;8.90;;;6.70;99.90;;;;;;6180302;28;21040;-57
2021/01/22 06:42:19;;;;;;;9.20;8.20;;;6.70;99.90;;;;;;6180107;28;20812;-60
2021/01/22 06:45:23;;;;;;;10.37;8.07;;;6.70;99.90;;;;;;6180303;28;20978;-60
2021/01/22 06:48:27;;;;;;;13.20;8.20;;;6.70;99.90;;;;;;6180195;28;20473;-61
2021/01/22 06:51:31;;;;;;;10.50;9.50;;;6.60;99.90;;;;;;6179889;28;21032;-60
2021/01/22 06:54:33;;;;;;;11.00;9.33;;;6.60;99.90;;;;;;6180374;28;20473;-60
2021/01/22 06:57:37;;;;;;;9.77;8.03;;;6.70;99.90;;;;;;6179705;28;20482;-60
2021/01/22 07:00:39;;;;;;;9.13;8.20;;;6.70;99.90;;;;;;6180025;28;20481;-60
2021/01/22 07:03:49;;;;;;;6.97;6.27;;;6.70;99.90;;;;;;6179492;28;20568;-59
2021/01/22 07:06:52;;;;;;;8.53;7.33;;;6.70;99.90;;;;;;6180173;28;20491;-57
2021/01/22 07:09:55;;;;;;;8.80;8.00;;;6.70;99.90;;;;;;6179482;28;20817;-57
2021/01/22 07:12:57;;;;;;;11.90;9.20;;;6.70;99.90;;;;;;6180105;28;20458;-54
2021/01/22 07:16:06;;;;;;;10.63;7.13;;;6.80;99.90;;;;;;6180112;28;20456;-53
2021/01/22 07:19:09;;;;;;;9.00;8.07;;;6.80;99.90;;;;;;6179489;28;20567;-53
2021/01/22 07:22:15;;;;;;;8.23;7.43;;;6.80;99.90;;;;;;6179947;28;20810;-54
2021/01/22 07:25:30;;;;;;;10.47;9.40;;;6.90;99.90;;;;;;6179768;28;20863;-60
2021/01/22 07:28:32;;;;;;;14.00;8.33;;;6.90;99.90;;;;;;6179352;28;20962;-53
2021/01/22 07:31:52;;;;;;;10.77;8.00;;;7.00;99.90;;;;;;6179286;28;20497;-53
2021/01/22 07:34:56;;;;;;;10.20;7.80;;;7.20;99.90;;;;;;6179975;28;20474;-54
2021/01/22 07:37:59;;;;;;;8.50;7.50;;;7.30;99.90;;;;;;6194105;28;20473;-53
2021/01/22 07:41:01;;;;;;;8.47;7.67;;;7.40;99.90;;;;;;6210842;28;20491;-52
2021/01/22 07:44:05;;;;;;;11.70;7.90;;;7.50;99.90;;;;;;6217897;28;20814;-53
2021/01/22 07:47:09;;;;;;;11.30;8.07;;;7.60;99.90;;;;;;6227295;28;20983;-53
2021/01/22 07:50:13;;;;;;;8.20;7.43;;;7.60;99.90;;;;;;6227293;28;20468;-53
2021/01/22 07:53:17;;;;;;;9.47;7.80;;;7.70;99.90;;;;;;6227510;28;20480;-53
2021/01/22 07:56:20;;;;;;;8.30;7.43;;;7.70;99.90;;;;;;6227470;28;20471;-56
2021/01/22 07:59:26;;;;;;;7.60;6.90;;;7.70;99.90;;;;;;6225641;28;20476;-58
2021/01/22 08:02:28;;;;;;;8.23;7.37;;;7.80;99.90;;;;;;6225369;28;20475;-56
2021/01/22 08:05:33;;;;;;;10.80;7.97;;;7.90;99.90;;;;;;6225873;28;20483;-57
2021/01/22 08:08:38;;;;;;;10.37;8.77;;;7.90;99.90;;;;;;6225708;28;20585;-57
2021/01/22 08:11:41;;;;;;;11.53;10.00;;;7.80;99.90;;;;;;6226239;28;20810;-57
2021/01/22 08:14:43;;;;;;;13.60;10.47;;;7.90;99.90;;;;;;6225830;28;20806;-58
2021/01/22 08:17:47;;;;;;;10.63;8.77;;;7.90;99.90;;;;;;6227139;28;20479;-57
2021/01/22 08:20:51;;;;;;;12.17;9.20;;;7.90;99.90;;;;;;6226908;28;20479;-57
2021/01/22 08:23:57;;;;;;;11.87;8.30;;;8.00;99.90;;;;;;6226606;28;20484;-57
2021/01/22 08:27:01;;;;;;;12.57;9.20;;;8.00;99.90;;;;;;6226203;28;20483;-58
2021/01/22 08:30:10;;;;;;;13.50;10.57;;;8.00;99.90;;;;;;6221992;28;20480;-60
2021/01/22 08:33:12;;;;;;;11.90;9.20;;;8.00;99.90;;;;;;6226257;28;20474;-58
2021/01/22 08:36:16;;;;;;;13.77;10.00;;;8.10;99.90;;;;;;6226081;28;20476;-59
2021/01/22 08:39:18;;;;;;;11.53;9.60;;;8.10;99.90;;;;;;6225713;28;20514;-59
2021/01/22 08:42:21;;;;;;;19.43;11.27;;;8.10;99.90;;;;;;6225726;28;20478;-58
2021/01/22 08:45:23;;;;;;;43.80;28.83;;;8.20;99.90;;;;;;6225584;28;20472;-59
2021/01/22 08:48:29;;;;;;;17.50;11.90;;;8.30;99.90;;;;;;6221437;28;20622;-58
2021/01/22 08:51:37;;;;;;;9.73;8.80;;;8.50;99.90;;;;;;6226039;28;20487;-58
2021/01/22 08:54:39;;;;;;;17.07;9.73;;;8.70;99.90;;;;;;6225685;28;20642;-58
2021/01/22 08:58:00;;;;;;;12.87;11.20;;;8.80;99.90;;;;;;6225877;28;20476;-62
2021/01/22 09:01:02;;;;;;;14.63;10.50;;;9.10;99.90;;;;;;6225807;28;20425;-60
2021/01/22 09:04:18;;;;;;;11.60;9.60;;;9.10;99.90;;;;;;6225810;28;20538;-65
2021/01/22 09:07:21;;;;;;;13.80;10.20;;;9.20;99.90;;;;;;6225600;28;20528;-61
2021/01/22 09:10:28;;;;;;;9.30;7.80;;;9.40;99.90;;;;;;6225488;28;20472;-66
2021/01/22 09:13:30;;;;;;;12.20;7.33;;;9.50;99.90;;;;;;6225853;28;20491;-60
2021/01/22 09:16:45;;;;;;;16.37;7.87;;;9.60;99.90;;;;;;6225615;28;20813;-66
2021/01/22 09:20:02;;;;;;;8.53;7.60;;;9.70;99.90;;;;;;6225592;28;20786;-63
2021/01/22 09:23:06;;;;;;;13.80;8.33;;;9.80;99.90;;;;;;6225411;28;20954;-65
2021/01/22 09:26:08;;;;;;;9.80;7.10;;;10.00;99.90;;;;;;6225254;28;20472;-62
2021/01/22 09:29:11;;;;;;;11.63;8.47;;;10.40;99.90;;;;;;6225063;28;20484;-62
2021/01/22 09:32:14;;;;;;;10.60;8.33;;;10.90;99.90;;;;;;6225602;28;20559;-64
2021/01/22 09:35:17;;;;;;;10.73;7.50;;;11.30;99.90;;;;;;6225133;28;20561;-63
2021/01/22 09:38:21;;;;;;;8.03;6.70;;;11.80;99.90;;;;;;6224912;28;20483;-62
2021/01/22 09:41:23;;;;;;;6.47;4.30;;;12.10;99.90;;;;;;6225024;28;20563;-63
2021/01/22 09:44:28;;;;;;;4.83;4.40;;;12.20;99.40;;;;;;6224984;28;20476;-66
2021/01/22 09:47:30;;;;;;;4.67;3.87;;;12.40;99.10;;;;;;6224685;28;20490;-63
2021/01/22 09:50:33;;;;;;;6.87;4.70;;;12.40;98.60;;;;;;6225350;28;20472;-63
2021/01/22 09:53:36;;;;;;;4.13;3.50;;;12.50;98.60;;;;;;6215713;28;20931;-63
2021/01/22 09:56:39;;;;;;;5.90;2.87;;;12.60;98.50;;;;;;6225134;28;20479;-64
2021/01/22 09:59:42;;;;;;;6.97;5.67;;;12.60;98.30;;;;;;6225078;28;20483;-61
2021/01/22 10:02:44;;;;;;;4.37;3.87;;;12.80;98.00;;;;;;6224577;28;20479;-61
2021/01/22 10:05:47;;;;;;;3.40;3.10;;;13.00;97.80;;;;;;6200985;28;20477;-61
2021/01/22 10:08:50;;;;;;;5.33;4.00;;;13.00;97.50;;;;;;6204234;28;20472;-59
2021/01/22 10:11:52;;;;;;;3.10;2.90;;;13.10;97.50;;;;;;6200395;28;20483;-60
2021/01/22 10:14:55;;;;;;;2.70;2.40;;;13.20;97.20;;;;;;6208684;28;20530;-59
2021/01/22 10:17:57;;;;;;;2.90;2.30;;;13.50;96.90;;;;;;6213601;28;20472;-60
2021/01/22 10:20:59;;;;;;;2.77;2.10;;;13.80;96.20;;;;;;6210850;28;20479;-61
2021/01/22 10:24:05;;;;;;;3.90;3.30;;;13.70;95.70;;;;;;6218491;28;20972;-65
2021/01/22 10:27:08;;;;;;;3.50;3.00;;;13.70;95.80;;;;;;6224760;28;20486;-64
2021/01/22 10:30:11;;;;;;;2.37;2.17;;;13.70;95.90;;;;;;6218362;28;20486;-62
2021/01/22 10:33:13;;;;;;;3.60;2.80;;;13.70;95.60;;;;;;6200690;28;20619;-63
2021/01/22 10:36:16;;;;;;;3.47;3.00;;;14.40;95.50;;;;;;6202648;28;20531;-65
2021/01/22 10:39:20;;;;;;;5.63;2.60;;;16.60;94.00;;;;;;6229052;28;20960;-63
2021/01/22 10:42:22;;;;;;;4.33;2.70;;;19.90;85.00;;;;;;6228793;28;20476;-62
2021/01/22 10:45:24;;;;;;;3.10;2.40;;;23.50;68.70;;;;;;6228946;28;20248;-66
2021/01/22 10:48:27;;;;;;;3.53;2.90;;;26.10;54.70;;;;;;6228602;28;20681;-64
2021/01/22 10:51:29;;;;;;;3.50;3.20;;;27.70;46.70;;;;;;6229185;28;20237;-65
2021/01/22 10:54:32;;;;;;;4.13;3.00;;;26.40;46.10;;;;;;6228411;28;20244;-65
2021/01/22 10:57:35;;;;;;;3.00;2.50;;;24.60;47.70;;;;;;6224578;28;20315;-64
2021/01/22 11:00:37;;;;;;;4.03;3.40;;;22.90;50.20;;;;;;6228675;28;20232;-63
2021/01/22 11:03:40;;;;;;;3.03;2.57;;;21.40;53.40;;;;;;6228616;28;20284;-62
2021/01/22 11:06:42;;;;;;;3.33;3.00;;;20.00;56.50;;;;;;6225785;28;20565;-66
2021/01/22 11:09:45;;;;;;;13.23;7.90;;;20.50;57.50;;;;;;6227948;28;20233;-61
2021/01/22 11:12:48;;;;;;;9.93;6.37;;;24.10;53.80;;;;;;6228010;28;20240;-65
2021/01/22 11:15:50;;;;;;;5.00;3.87;;;27.90;46.00;;;;;;6228561;28;20243;-66
2021/01/22 11:18:52;;;;;;;3.37;2.57;;;30.10;41.20;;;;;;6224517;28;20220;-64
2021/01/22 11:21:55;;;;;;;3.30;2.50;;;31.30;37.40;;;;;;6207744;28;20211;-64
2021/01/22 11:24:58;;;;;;;5.28;3.08;;;33.40;34.60;;;;;;6203968;28;20316;-65
2021/01/22 11:28:01;;;;;;;2.83;2.10;;;35.50;30.40;;;;;;6203647;28;20268;-63
2021/01/22 11:31:03;;;;;;;2.25;2.05;;;37.10;28.30;;;;;;6221750;28;20523;-65
2021/01/22 11:34:05;;;;;;;1.90;1.70;;;36.90;27.30;;;;;;6228215;28;20201;-62
2021/01/22 11:37:07;;;;;;;3.65;1.90;;;34.90;28.40;;;;;;6227778;28;20236;-66
2021/01/22 11:40:12;;;;;;;2.15;1.77;;;35.20;27.90;;;;;;6227463;28;20231;-65
2021/01/22 11:43:14;;;;;;;3.10;1.95;;;36.90;26.40;;;;;;6217807;28;20666;-66
2021/01/22 11:46:16;;;;;;;2.03;1.40;;;36.90;26.30;;;;;;6203652;28;20228;-67
2021/01/22 11:49:19;;;;;;;2.45;1.63;;;35.80;26.40;;;;;;6203056;28;20304;-69
2021/01/22 11:52:21;;;;;;;1.98;1.77;;;31.10;30.20;;;;;;6244483;28;20220;-65
2021/01/22 11:55:24;;;;;;;2.30;1.52;;;30.90;31.80;;;;;;6251812;28;20228;-69
2021/01/22 11:58:26;;;;;;;1.88;1.50;;;32.60;29.80;;;;;;6251286;28;20573;-67
2021/01/22 12:01:28;;;;;;;1.47;1.20;;;31.60;30.40;;;;;;6252039;28;20227;-66
2021/01/22 12:04:31;;;;;;;4.03;1.73;;;30.70;31.90;;;;;;6251642;28;20232;-66
2021/01/22 12:07:33;;;;;;;1.83;1.50;;;28.90;33.90;;;;;;6251818;28;20255;-62
2021/01/22 12:10:36;;;;;;;1.42;1.20;;;31.10;32.60;;;;;;6233117;28;20228;-62
2021/01/22 12:13:38;;;;;;;2.22;1.30;;;32.90;29.90;;;;;;6227050;28;20240;-63
2021/01/22 12:16:40;;;;;;;2.22;1.35;;;34.40;28.30;;;;;;6214795;28;20221;-64
2021/01/22 12:19:43;;;;;;;1.50;1.40;;;33.30;28.80;;;;;;6213798;28;20220;-63
2021/01/22 12:22:45;;;;;;;2.20;1.40;;;32.00;29.60;;;;;;6214281;28;20228;-64
2021/01/22 12:25:48;;;;;;;2.90;1.53;;;30.20;31.80;;;;;;6212798;28;20220;-59
2021/01/22 12:28:50;;;;;;;1.80;1.43;;;30.80;32.00;;;;;;6214546;28;20235;-59
2021/01/22 12:31:53;;;;;;;2.17;1.97;;;28.70;33.40;;;;;;6211999;28;20221;-59
2021/01/22 12:34:56;;;;;;;2.80;1.60;;;26.60;36.40;;;;;;6209938;28;20689;-59
2021/01/22 12:37:59;;;;;;;3.57;1.70;;;24.20;40.70;;;;;;6212870;28;20241;-59
2021/01/22 12:41:03;;;;;;;2.00;1.50;;;22.90;43.40;;;;;;6212577;28;20330;-59
2021/01/22 12:44:05;;;;;;;1.70;1.60;;;21.30;46.10;;;;;;6213986;28;20236;-59
2021/01/22 12:47:07;;;;;;;3.50;1.50;;;20.40;48.70;;;;;;6219148;28;20700;-59
2021/01/22 12:50:12;;;;;;;2.53;1.40;;;19.80;50.00;;;;;;6217694;28;20237;-59
2021/01/22 12:53:14;;;;;;;2.50;1.60;;;20.50;51.20;;;;;;6213771;28;20222;-59
2021/01/22 12:56:18;;;;;;;4.63;2.27;;;23.70;45.60;;;;;;6213743;28;20227;-59
2021/01/22 12:59:20;;;;;;;4.13;1.80;;;25.40;43.10;;;;;;6207808;28;20708;-59
2021/01/22 13:02:22;;;;;;;3.00;2.30;;;25.70;40.50;;;;;;6212321;28;20309;-60
2021/01/22 13:05:25;;;;;;;2.80;2.40;;;24.00;42.50;;;;;;6204087;28;20225;-59
2021/01/22 13:08:27;;;;;;;2.47;1.80;;;22.80;44.50;;;;;;6212805;28;20239;-59
2021/01/22 13:11:30;;;;;;;4.50;1.97;;;20.80;47.60;;;;;;6211279;28;20249;-59
2021/01/22 13:14:33;;;;;;;4.57;1.63;;;18.90;52.00;;;;;;6211228;28;20237;-58
2021/01/22 13:17:35;;;;;;;2.17;1.40;;;17.90;54.40;;;;;;6214177;28;20468;-59
2021/01/22 13:20:38;;;;;;;3.20;1.33;;;16.80;57.30;;;;;;6210845;28;20552;-60
2021/01/22 13:23:41;;;;;;;2.07;1.43;;;15.30;62.80;;;;;;6203537;28;20477;-58
2021/01/22 13:26:44;;;;;;;2.20;1.30;;;14.80;66.80;;;;;;6201028;28;20477;-58
2021/01/22 13:29:47;;;;;;;1.83;1.20;;;14.50;70.30;;;;;;6208321;28;20960;-58
2021/01/22 13:32:49;;;;;;;1.97;1.40;;;14.30;72.80;;;;;;6225508;28;20562;-59
2021/01/22 13:35:55;;;;;;;1.87;1.30;;;14.50;74.10;;;;;;6225134;28;20468;-58
2021/01/22 13:38:59;;;;;;;1.93;1.33;;;14.80;74.70;;;;;;6200409;28;20481;-59
2021/01/22 13:42:07;;;;;;;2.00;1.37;;;14.90;75.00;;;;;;6202930;28;20564;-57
2021/01/22 13:45:10;;;;;;;4.13;1.23;;;14.90;75.90;;;;;;6201140;28;20473;-60
2021/01/22 13:48:32;;;;;;;1.90;1.40;;;14.90;76.50;;;;;;6217902;28;20488;-58
2021/01/22 13:51:34;;;;;;;3.63;1.50;;;14.80;77.10;;;;;;6216888;28;20476;-58
2021/01/22 13:54:37;;;;;;;2.17;1.40;;;14.70;77.80;;;;;;6200236;28;20991;-59
2021/01/22 13:57:40;;;;;;;3.83;1.17;;;14.70;78.50;;;;;;6200334;28;20989;-59
2021/01/22 14:00:43;;;;;;;1.83;1.70;;;14.60;79.10;;;;;;6198284;28;20473;-58
2021/01/22 14:03:45;;;;;;;1.40;1.30;;;14.60;79.40;;;;;;6198939;28;20477;-58
2021/01/22 14:06:48;;;;;;;8.47;0.93;;;14.60;80.00;;;;;;6199486;28;21096;-59
2021/01/22 14:09:50;;;;;;;2.60;1.27;;;14.50;80.30;;;;;;6202526;28;20827;-58
2021/01/22 14:12:56;;;;;;;2.53;1.30;;;14.60;80.60;;;;;;6226955;28;20460;-59
2021/01/22 14:15:58;;;;;;;2.13;1.20;;;14.80;80.50;;;;;;6229632;28;20438;-58
2021/01/22 14:19:00;;;;;;;2.03;1.23;;;14.80;80.00;;;;;;6229599;28;20475;-58
2021/01/22 14:22:03;;;;;;;1.50;1.10;;;14.70;80.10;;;;;;6229081;28;20531;-59
2021/01/22 14:25:06;;;;;;;2.10;0.87;;;14.60;80.90;;;;;;6229178;28;20448;-60
2021/01/22 14:28:10;;;;;;;1.50;0.93;;;14.60;81.20;;;;;;6229426;28;20478;-58
2021/01/22 14:31:12;;;;;;;2.10;1.10;;;14.50;81.40;;;;;;6228927;28;21028;-60
2021/01/22 14:34:14;;;;;;;2.00;1.10;;;14.60;81.60;;;;;;6228759;28;21093;-59
2021/01/22 14:37:16;;;;;;;3.13;1.57;;;14.60;82.00;;;;;;6218055;28;20461;-59
2021/01/22 14:40:19;;;;;;;1.90;1.50;;;14.60;82.00;;;;;;6204435;28;20804;-59
2021/01/22 14:43:22;;;;;;;2.17;1.63;;;14.70;82.20;;;;;;6204583;28;21052;-59
2021/01/22 14:46:25;;;;;;;3.13;1.93;;;14.80;81.90;;;;;;6204304;28;20856;-57
2021/01/22 14:49:27;;;;;;;2.20;1.73;;;14.70;82.10;;;;;;6204560;28;20480;-57
2021/01/22 14:52:30;;;;;;;3.97;1.50;;;14.70;82.70;;;;;;6204563;28;20506;-59
2021/01/22 14:55:32;;;;;;;3.13;1.60;;;14.60;83.20;;;;;;6204142;28;20568;-59
2021/01/22 14:58:35;;;;;;;3.80;1.63;;;14.40;84.30;;;;;;6204057;28;20555;-59
2021/01/22 15:01:38;;;;;;;1.70;1.47;;;14.30;84.80;;;;;;6204244;28;20937;-58
2021/01/22 15:04:41;;;;;;;1.37;1.10;;;14.20;85.80;;;;;;6204073;28;20526;-65
2021/01/22 15:07:43;;;;;;;2.30;1.63;;;14.00;86.70;;;;;;6204116;28;20491;-62
2021/01/22 15:10:45;;;;;;;1.77;1.60;;;13.90;87.70;;;;;;6203598;28;20475;-63
2021/01/22 15:13:48;;;;;;;1.70;1.60;;;13.60;88.80;;;;;;6204436;28;20479;-62
2021/01/22 15:16:51;;;;;;;2.40;1.60;;;13.50;90.20;;;;;;6203879;28;20477;-59
2021/01/22 15:19:53;;;;;;;6.33;1.83;;;13.30;90.80;;;;;;6203902;28;20477;-61
2021/01/22 15:22:55;;;;;;;5.77;2.33;;;13.20;91.00;;;;;;6203067;28;20468;-61
2021/01/22 15:25:58;;;;;;;3.80;1.83;;;13.20;91.30;;;;;;6203562;28;20468;-63
2021/01/22 15:29:01;;;;;;;1.63;1.47;;;13.20;91.70;;;;;;6205221;28;20692;-64
2021/01/22 15:32:06;;;;;;;2.77;1.60;;;13.20;91.90;;;;;;6227841;28;20476;-61
2021/01/22 15:35:10;;;;;;;2.87;2.10;;;13.10;92.10;;;;;;6225324;28;20486;-59
2021/01/22 15:38:13;;;;;;;5.27;1.90;;;13.00;92.30;;;;;;6221000;28;20476;-60
2021/01/22 15:41:18;;;;;;;3.30;1.43;;;13.00;92.70;;;;;;6227549;28;20474;-59
2021/01/22 15:44:21;;;;;;;1.63;1.53;;;12.80;92.80;;;;;;6227093;28;20979;-59
2021/01/22 15:47:26;;;;;;;2.93;1.57;;;12.70;93.30;;;;;;6206266;28;20469;-59
2021/01/22 15:50:29;;;;;;;2.93;2.10;;;12.60;93.80;;;;;;6205967;28;20567;-59
2021/01/22 15:53:31;;;;;;;2.70;1.40;;;12.50;94.30;;;;;;6225407;28;20480;-60
2021/01/22 15:56:33;;;;;;;1.63;1.53;;;12.40;94.60;;;;;;6215278;28;20476;-62
2021/01/22 15:59:36;;;;;;;3.83;3.43;;;12.40;95.10;;;;;;6212426;28;20965;-63